Terminal Aerodrome Forecast
Issued by NWS

Current Version | Previous Version | Graphics & Text | Print | Product List | Glossary On
Versions: 1 2 3 4 5 6 7 8 9 10 11 12 13 14 15 16 17 18 19 20 21 22 23 24 25 26 27 28 29 30 31 32 33 34 35 36 37 38 39
000
FTUS41 KRNK 290051 AAB
TAFLWB
TAF AMD
KLWB 290051Z 2901/2924 00000KT P6SM -SHRA SCT009 BKN045
     FM290200 00000KT 4SM BR VCSH SCT006 OVC060
     FM290800 00000KT 3SM BR OVC015
     FM291400 28007KT P6SM BKN035
     FM291900 28007KT P6SM SCT045=

USA.gov is the U.S. government's official web portal to all federal, state and local government web resources and services.